createdAt,value
2023-07-31T00:01:12.819Z,9.63
2023-07-31T00:03:42.423Z,11.10
2023-07-31T00:06:10.781Z,8.13
2023-07-31T00:08:39.018Z,10.20
2023-07-31T00:11:07.282Z,8.97
2023-07-31T00:13:35.525Z,6.30
2023-07-31T00:16:03.804Z,7.97
2023-07-31T00:18:32.121Z,7.40
2023-07-31T00:21:01.734Z,11.10
2023-07-31T00:23:30.051Z,7.90
2023-07-31T00:25:58.277Z,18.83
2023-07-31T00:28:26.558Z,9.77
2023-07-31T00:30:54.839Z,11.13
2023-07-31T00:33:23.078Z,10.83
2023-07-31T00:35:51.443Z,7.37
2023-07-31T00:38:21.013Z,7.83
2023-07-31T00:40:49.236Z,8.07
2023-07-31T00:43:17.459Z,6.00
2023-07-31T00:45:45.872Z,5.93
2023-07-31T00:48:14.181Z,8.97
2023-07-31T00:50:42.583Z,9.00
2023-07-31T00:53:10.813Z,8.00
2023-07-31T00:55:40.486Z,9.93
2023-07-31T00:58:08.797Z,9.07
2023-07-31T01:00:37.045Z,9.40
2023-07-31T01:03:05.389Z,7.90
2023-07-31T01:05:36.612Z,8.33
2023-07-31T01:08:07.314Z,8.33
2023-07-31T01:10:37.799Z,9.47
2023-07-31T01:13:07.824Z,11.90
2023-07-31T01:15:36.380Z,7.30
2023-07-31T01:18:04.902Z,10.33
2023-07-31T01:20:33.398Z,9.90
2023-07-31T01:23:11.127Z,9.47
2023-07-31T01:26:00.314Z,12.60
2023-07-31T01:28:32.057Z,11.57
2023-07-31T01:31:02.281Z,17.03
2023-07-31T01:33:31.015Z,9.87
2023-07-31T01:35:59.748Z,11.73
2023-07-31T01:38:27.972Z,13.70
2023-07-31T01:40:56.325Z,10.47
2023-07-31T01:43:25.432Z,10.90
2023-07-31T01:45:55.106Z,11.30
2023-07-31T01:48:23.349Z,10.63
2023-07-31T01:50:51.588Z,9.90
2023-07-31T01:53:19.839Z,12.67
2023-07-31T01:55:48.054Z,8.97
2023-07-31T01:58:16.258Z,8.77
2023-07-31T02:00:44.487Z,15.53
2023-07-31T02:03:14.140Z,11.90
2023-07-31T02:05:46.845Z,9.70
2023-07-31T02:08:15.452Z,9.13
2023-07-31T02:10:43.676Z,7.67
2023-07-31T02:13:11.941Z,8.57
2023-07-31T02:15:40.461Z,10.10
2023-07-31T02:18:08.685Z,10.40
2023-07-31T02:20:38.428Z,7.87
2023-07-31T02:23:06.650Z,8.10
2023-07-31T02:25:34.893Z,9.90
2023-07-31T02:28:03.122Z,13.73
2023-07-31T02:30:31.369Z,9.60
2023-07-31T02:32:59.633Z,9.33
2023-07-31T02:35:27.894Z,12.40
2023-07-31T02:37:57.554Z,8.03
2023-07-31T02:40:25.771Z,18.53
2023-07-31T02:42:54.014Z,17.70
2023-07-31T02:45:22.228Z,13.37
2023-07-31T02:47:50.643Z,10.23
2023-07-31T02:50:19.031Z,7.20
2023-07-31T02:52:47.332Z,13.47
2023-07-31T02:55:16.920Z,12.87
2023-07-31T02:57:45.130Z,14.40
2023-07-31T03:00:13.623Z,13.73
2023-07-31T03:02:41.961Z,8.10
2023-07-31T03:05:10.756Z,11.77
2023-07-31T03:07:38.983Z,15.50
2023-07-31T03:10:07.664Z,7.40
2023-07-31T03:12:37.242Z,9.43
2023-07-31T03:15:05.668Z,11.83
2023-07-31T03:17:34.040Z,12.53
2023-07-31T03:20:02.310Z,10.30
2023-07-31T03:22:30.546Z,10.70
2023-07-31T03:24:58.762Z,7.70
2023-07-31T03:27:27.001Z,14.17
2023-07-31T03:29:56.676Z,10.20
2023-07-31T03:32:24.941Z,9.93
2023-07-31T03:34:53.144Z,9.20
2023-07-31T03:37:21.358Z,11.90
2023-07-31T03:39:49.602Z,8.97
2023-07-31T03:42:17.858Z,9.57
2023-07-31T03:44:46.090Z,9.90
2023-07-31T03:47:15.694Z,6.77
2023-07-31T03:49:43.923Z,11.00
2023-07-31T03:52:12.172Z,7.77
2023-07-31T03:54:40.389Z,9.10
2023-07-31T03:57:08.965Z,11.67
2023-07-31T03:59:37.183Z,8.20
2023-07-31T04:02:05.630Z,13.87
2023-07-31T04:04:36.288Z,10.57
2023-07-31T04:07:04.888Z,7.40
2023-07-31T04:09:33.086Z,10.30
2023-07-31T04:12:01.339Z,7.40
2023-07-31T04:14:29.584Z,8.83
2023-07-31T04:16:57.849Z,10.60
2023-07-31T04:19:26.163Z,7.73
2023-07-31T04:21:55.812Z,5.80
2023-07-31T04:24:25.491Z,13.83
2023-07-31T04:26:53.834Z,8.20
2023-07-31T04:29:22.066Z,10.00
2023-07-31T04:31:50.711Z,10.07
2023-07-31T04:34:18.948Z,11.00
2023-07-31T04:36:47.250Z,8.50
2023-07-31T04:39:16.837Z,9.83
2023-07-31T04:41:45.182Z,7.03
2023-07-31T04:44:13.410Z,5.70
2023-07-31T04:46:42.139Z,11.77
2023-07-31T04:49:10.692Z,9.37
2023-07-31T04:51:38.913Z,10.80
2023-07-31T04:54:07.131Z,9.20
2023-07-31T04:56:36.866Z,9.10
2023-07-31T04:59:05.373Z,9.03
2023-07-31T05:01:33.633Z,9.43
2023-07-31T05:04:02.685Z,6.07
2023-07-31T05:06:31.033Z,8.10
2023-07-31T05:08:59.257Z,7.90
2023-07-31T05:11:27.491Z,6.87
2023-07-31T05:13:57.085Z,10.53
2023-07-31T05:16:27.464Z,9.40
2023-07-31T05:18:55.743Z,8.63
2023-07-31T05:21:23.951Z,10.10
2023-07-31T05:23:52.212Z,8.63
2023-07-31T05:26:20.422Z,11.37
2023-07-31T05:28:48.642Z,9.13
2023-07-31T05:31:18.220Z,9.60
2023-07-31T05:33:46.447Z,7.97
2023-07-31T05:36:14.711Z,9.57
2023-07-31T05:38:43.591Z,9.20
2023-07-31T05:41:11.846Z,7.63
2023-07-31T05:43:40.071Z,6.23
2023-07-31T05:46:10.167Z,6.57
2023-07-31T05:48:39.815Z,7.77
2023-07-31T05:51:08.162Z,8.70
2023-07-31T05:53:37.152Z,8.50
2023-07-31T05:56:05.500Z,14.33
2023-07-31T05:58:33.729Z,9.13
2023-07-31T06:01:02.036Z,12.43
2023-07-31T06:03:30.301Z,8.83
2023-07-31T06:05:59.887Z,11.77
2023-07-31T06:08:28.166Z,7.13
2023-07-31T06:10:56.483Z,7.57
2023-07-31T06:13:24.777Z,17.40
2023-07-31T06:15:53.013Z,9.90
2023-07-31T06:18:21.238Z,10.13
2023-07-31T06:20:54.343Z,8.40
2023-07-31T06:23:23.980Z,10.60
2023-07-31T06:25:52.213Z,8.87
2023-07-31T06:28:20.485Z,13.47
2023-07-31T06:30:48.785Z,9.77
2023-07-31T06:33:17.103Z,9.93
2023-07-31T06:35:46.500Z,11.23
2023-07-31T06:38:14.792Z,7.63
2023-07-31T06:40:44.397Z,11.20
2023-07-31T06:43:12.675Z,9.77
2023-07-31T06:45:41.009Z,10.17
2023-07-31T06:48:09.387Z,14.60
2023-07-31T06:50:38.029Z,7.30
2023-07-31T06:53:06.273Z,6.23
2023-07-31T06:55:34.661Z,10.10
2023-07-31T06:58:04.681Z,12.70
2023-07-31T07:00:33.332Z,7.10
2023-07-31T07:03:01.633Z,8.00
2023-07-31T07:05:29.933Z,7.13
2023-07-31T07:07:58.222Z,7.67
2023-07-31T07:10:26.472Z,9.73
2023-07-31T07:12:55.488Z,9.10
2023-07-31T07:15:25.117Z,7.83
2023-07-31T07:17:53.414Z,9.83
2023-07-31T07:20:21.662Z,6.10
2023-07-31T07:22:49.900Z,9.00
2023-07-31T07:25:18.350Z,8.60
2023-07-31T07:27:46.615Z,7.17
2023-07-31T07:30:15.409Z,7.67
2023-07-31T07:32:45.071Z,11.30
2023-07-31T07:35:13.334Z,5.80
2023-07-31T07:37:41.560Z,15.40
2023-07-31T07:40:10.432Z,6.67
2023-07-31T07:42:38.674Z,8.60
2023-07-31T07:45:07.519Z,7.57
2023-07-31T07:47:35.802Z,7.10
2023-07-31T07:50:07.350Z,8.07
2023-07-31T07:52:37.836Z,10.47
2023-07-31T07:55:06.288Z,6.60
2023-07-31T07:57:34.520Z,8.63
2023-07-31T08:00:02.740Z,6.10
2023-07-31T08:02:30.998Z,8.93
2023-07-31T08:04:59.364Z,5.70
2023-07-31T08:07:28.966Z,7.10
2023-07-31T08:09:57.196Z,8.80
2023-07-31T08:12:25.483Z,6.00
2023-07-31T08:14:53.699Z,7.53
2023-07-31T08:17:22.040Z,8.47
2023-07-31T08:19:50.354Z,6.03
2023-07-31T08:22:18.642Z,5.73
2023-07-31T08:24:48.215Z,7.37
2023-07-31T08:27:16.473Z,7.13
2023-07-31T08:29:44.696Z,5.70
2023-07-31T08:32:12.939Z,9.00
2023-07-31T08:34:41.145Z,10.70
2023-07-31T08:37:09.448Z,9.30
2023-07-31T08:39:40.678Z,7.30
2023-07-31T08:42:11.803Z,6.43
2023-07-31T08:44:40.247Z,9.40
2023-07-31T08:47:08.934Z,6.40
2023-07-31T08:49:37.673Z,6.60
2023-07-31T08:52:06.149Z,6.07
2023-07-31T08:54:34.544Z,8.53
2023-07-31T08:57:03.049Z,8.87
2023-07-31T08:59:33.781Z,9.03
2023-07-31T09:02:06.981Z,6.77
2023-07-31T09:04:35.328Z,9.30
2023-07-31T09:07:05.634Z,6.33
2023-07-31T09:09:34.228Z,10.57
2023-07-31T09:12:02.443Z,8.50
2023-07-31T09:14:30.645Z,6.20
2023-07-31T09:17:01.653Z,9.10
2023-07-31T09:19:30.539Z,7.47
2023-07-31T09:21:58.801Z,8.40
2023-07-31T09:24:31.249Z,6.53
2023-07-31T09:27:00.642Z,6.10
2023-07-31T09:29:29.549Z,6.30
2023-07-31T09:31:59.251Z,5.80
2023-07-31T09:34:33.001Z,11.00
2023-07-31T09:37:03.902Z,6.30
2023-07-31T09:39:32.913Z,7.20
2023-07-31T09:42:02.080Z,7.73
2023-07-31T09:44:43.089Z,7.07
2023-07-31T09:47:25.093Z,11.00
2023-07-31T09:49:55.189Z,7.10
2023-07-31T09:52:23.574Z,6.90
2023-07-31T09:54:51.830Z,7.37
2023-07-31T09:57:20.502Z,5.70
2023-07-31T09:59:49.998Z,8.33
2023-07-31T10:02:21.523Z,7.13
2023-07-31T10:04:51.466Z,7.60
2023-07-31T10:07:21.328Z,8.73
2023-07-31T10:09:50.015Z,6.03
2023-07-31T10:12:18.958Z,10.93
2023-07-31T10:14:47.575Z,5.93
2023-07-31T10:17:16.435Z,7.80
2023-07-31T10:19:44.976Z,5.63
2023-07-31T10:22:14.251Z,5.30
2023-07-31T10:24:45.390Z,5.10
2023-07-31T10:27:13.620Z,6.30
2023-07-31T10:29:42.726Z,5.87
2023-07-31T10:32:12.585Z,5.63
2023-07-31T10:34:42.139Z,5.20
2023-07-31T10:37:23.540Z,7.27
2023-07-31T10:39:59.655Z,6.00
2023-07-31T10:42:32.334Z,5.33
2023-07-31T10:45:01.273Z,6.20
2023-07-31T10:47:29.619Z,4.30
2023-07-31T10:50:12.778Z,5.50
2023-07-31T10:52:41.094Z,5.10
2023-07-31T10:55:27.490Z,3.57
2023-07-31T10:57:55.998Z,4.13
2023-07-31T11:00:25.546Z,4.13
2023-07-31T11:03:00.598Z,5.57
2023-07-31T11:05:44.800Z,7.87
2023-07-31T11:08:13.582Z,4.60
2023-07-31T11:10:43.160Z,4.80
2023-07-31T11:13:11.382Z,3.60
2023-07-31T11:15:39.607Z,4.33
2023-07-31T11:18:11.345Z,4.83
2023-07-31T11:20:40.083Z,5.23
2023-07-31T11:23:12.127Z,9.40
2023-07-31T11:25:42.647Z,7.27
2023-07-31T11:28:13.529Z,6.07
2023-07-31T11:30:42.797Z,7.80
2023-07-31T11:33:12.056Z,5.00
2023-07-31T11:35:45.740Z,7.23
2023-07-31T11:38:14.662Z,5.90
2023-07-31T11:40:46.027Z,5.97
2023-07-31T11:43:18.170Z,6.67
2023-07-31T11:45:47.724Z,6.10
2023-07-31T11:48:21.063Z,7.40
2023-07-31T11:50:50.474Z,7.90
2023-07-31T11:53:19.128Z,8.37
2023-07-31T11:55:47.708Z,4.93
2023-07-31T11:58:18.122Z,7.17
2023-07-31T12:00:46.549Z,7.10
2023-07-31T12:03:14.964Z,8.13
2023-07-31T12:05:43.181Z,9.80
2023-07-31T12:08:12.718Z,7.47
2023-07-31T12:10:41.984Z,5.87
2023-07-31T12:13:14.764Z,7.20
2023-07-31T12:15:44.979Z,9.10
2023-07-31T12:18:14.035Z,12.13
2023-07-31T12:20:45.831Z,6.07
2023-07-31T12:23:17.601Z,7.73
2023-07-31T12:25:45.874Z,6.50
2023-07-31T12:28:14.385Z,10.43
2023-07-31T12:30:43.355Z,7.97
2023-07-31T12:33:17.141Z,6.37
2023-07-31T12:35:46.835Z,7.10
2023-07-31T12:38:15.535Z,6.17
2023-07-31T12:40:44.250Z,6.80
2023-07-31T12:43:12.549Z,6.90
2023-07-31T12:45:40.825Z,5.53
2023-07-31T12:48:09.232Z,5.70
2023-07-31T12:50:39.095Z,6.83
2023-07-31T12:53:08.484Z,7.93
2023-07-31T12:55:37.855Z,5.63
2023-07-31T12:58:06.398Z,7.93
2023-07-31T13:00:37.795Z,5.93
2023-07-31T13:03:06.448Z,5.93
2023-07-31T13:05:34.749Z,7.30
2023-07-31T13:08:04.341Z,7.33
2023-07-31T13:10:32.585Z,5.73
2023-07-31T13:13:00.875Z,6.73
2023-07-31T13:15:29.130Z,5.87
2023-07-31T13:17:57.652Z,6.70
2023-07-31T13:20:25.967Z,12.83
2023-07-31T13:22:54.220Z,7.03
2023-07-31T13:25:23.807Z,6.17
2023-07-31T13:27:52.044Z,10.63
2023-07-31T13:30:20.401Z,6.43
2023-07-31T13:32:48.740Z,7.27
2023-07-31T13:35:16.983Z,6.60
2023-07-31T13:37:45.214Z,8.20
2023-07-31T13:40:13.812Z,8.13
2023-07-31T13:42:43.388Z,6.53
2023-07-31T13:45:11.782Z,5.83
2023-07-31T13:47:40.024Z,8.30
2023-07-31T13:50:08.764Z,6.77
2023-07-31T13:52:37.033Z,7.20
2023-07-31T13:55:05.363Z,7.00
2023-07-31T13:57:33.834Z,6.00
2023-07-31T14:00:03.481Z,6.30
2023-07-31T14:02:31.748Z,7.30
2023-07-31T14:04:59.950Z,7.00
2023-07-31T14:07:28.196Z,7.67
2023-07-31T14:09:56.424Z,9.33
2023-07-31T14:12:41.063Z,5.77
2023-07-31T14:15:12.958Z,6.50
2023-07-31T14:17:41.487Z,10.90
2023-07-31T14:20:11.151Z,6.43
2023-07-31T14:22:39.586Z,9.80
2023-07-31T14:25:08.278Z,8.30
2023-07-31T14:27:38.709Z,7.30
2023-07-31T14:30:07.606Z,6.67
2023-07-31T14:32:38.161Z,7.43
2023-07-31T14:35:06.798Z,9.00
2023-07-31T14:37:42.649Z,8.80
2023-07-31T14:40:11.632Z,8.10
2023-07-31T14:42:40.170Z,8.40
2023-07-31T14:45:09.896Z,8.67
2023-07-31T14:47:39.631Z,10.13
2023-07-31T14:50:08.597Z,11.10
2023-07-31T14:52:36.880Z,12.40
2023-07-31T14:55:05.261Z,7.10
2023-07-31T14:57:33.677Z,8.27
2023-07-31T15:00:01.909Z,6.87
2023-07-31T15:02:30.227Z,8.03
2023-07-31T15:04:59.810Z,7.07
2023-07-31T15:07:28.029Z,8.93
2023-07-31T15:09:56.284Z,6.60
2023-07-31T15:12:24.911Z,7.00
2023-07-31T15:14:53.924Z,17.90
2023-07-31T15:17:22.170Z,8.13
2023-07-31T15:19:50.413Z,7.60
2023-07-31T15:22:20.144Z,13.73
2023-07-31T15:24:50.188Z,6.90
2023-07-31T15:27:18.515Z,5.80
2023-07-31T15:29:46.760Z,6.13
2023-07-31T15:32:15.099Z,5.53
2023-07-31T15:34:43.393Z,7.27
2023-07-31T15:37:11.632Z,6.90
2023-07-31T15:39:41.227Z,5.10
2023-07-31T15:42:10.304Z,4.93
2023-07-31T15:44:40.050Z,6.97
2023-07-31T15:47:08.404Z,4.87
2023-07-31T15:49:36.631Z,5.13
2023-07-31T15:52:05.068Z,6.10
2023-07-31T15:54:33.298Z,7.13
2023-07-31T15:57:02.884Z,5.83
2023-07-31T15:59:31.232Z,6.43
2023-07-31T16:01:59.510Z,5.53
2023-07-31T16:04:27.818Z,5.03
2023-07-31T16:06:56.054Z,7.60
2023-07-31T16:09:24.350Z,5.97
2023-07-31T16:11:52.594Z,6.40
2023-07-31T16:14:22.211Z,5.57
2023-07-31T16:16:52.763Z,6.27
2023-07-31T16:19:22.685Z,5.87
2023-07-31T16:21:50.976Z,5.60
2023-07-31T16:24:19.201Z,7.20
2023-07-31T16:26:47.406Z,5.30
2023-07-31T16:29:15.650Z,5.40
2023-07-31T16:31:56.470Z,5.67
2023-07-31T16:34:27.378Z,5.70
2023-07-31T16:36:56.876Z,5.40
2023-07-31T16:39:25.336Z,5.10
2023-07-31T16:41:53.622Z,5.87
2023-07-31T16:44:21.888Z,4.23
2023-07-31T16:46:51.535Z,4.53
2023-07-31T16:49:19.757Z,6.67
2023-07-31T16:51:47.961Z,3.90
2023-07-31T16:54:16.379Z,4.10
2023-07-31T16:56:57.782Z,5.27
2023-07-31T16:59:28.323Z,7.17
2023-07-31T17:02:00.105Z,4.80
2023-07-31T17:04:29.156Z,3.90
2023-07-31T17:06:57.505Z,4.07
2023-07-31T17:09:25.750Z,6.23
2023-07-31T17:11:54.005Z,4.13
2023-07-31T17:14:22.632Z,3.83
2023-07-31T17:16:50.887Z,4.73
2023-07-31T17:19:20.458Z,6.30
2023-07-31T17:21:48.669Z,4.63
2023-07-31T17:24:17.501Z,3.70
2023-07-31T17:26:45.730Z,3.77
2023-07-31T17:29:14.123Z,3.60
2023-07-31T17:31:43.377Z,3.30
2023-07-31T17:34:12.005Z,3.43
2023-07-31T17:36:41.842Z,3.00
2023-07-31T17:39:10.261Z,3.90
2023-07-31T17:41:38.471Z,4.10
2023-07-31T17:44:06.963Z,3.20
2023-07-31T17:46:35.221Z,3.10
2023-07-31T17:49:03.683Z,3.47
2023-07-31T17:51:31.904Z,3.30
2023-07-31T17:54:01.711Z,2.70
2023-07-31T17:56:30.610Z,4.40
2023-07-31T17:58:58.832Z,4.13
2023-07-31T18:01:27.170Z,3.10
2023-07-31T18:03:55.664Z,3.10
2023-07-31T18:06:23.938Z,3.67
2023-07-31T18:08:52.237Z,3.27
2023-07-31T18:11:22.228Z,3.60
2023-07-31T18:13:50.479Z,3.77
2023-07-31T18:16:18.765Z,4.23
2023-07-31T18:18:47.064Z,3.40
2023-07-31T18:21:15.344Z,3.83
2023-07-31T18:23:43.623Z,3.67
2023-07-31T18:26:12.082Z,3.53
2023-07-31T18:28:41.754Z,4.47
2023-07-31T18:31:10.531Z,5.30
2023-07-31T18:33:39.676Z,3.87
2023-07-31T18:36:08.660Z,3.30
2023-07-31T18:38:36.971Z,3.23
2023-07-31T18:41:07.035Z,3.20
2023-07-31T18:43:35.275Z,4.37
2023-07-31T18:46:04.908Z,4.00
2023-07-31T18:48:33.218Z,5.20
2023-07-31T18:51:01.463Z,3.20
2023-07-31T18:53:29.716Z,5.60
2023-07-31T18:55:58.026Z,6.43
2023-07-31T18:58:26.483Z,3.47
2023-07-31T19:00:54.719Z,2.90
2023-07-31T19:03:25.899Z,2.83
2023-07-31T19:05:54.252Z,2.80
2023-07-31T19:08:22.470Z,2.67
2023-07-31T19:10:50.714Z,4.00
2023-07-31T19:13:18.949Z,2.77
2023-07-31T19:15:50.073Z,3.20
2023-07-31T19:18:18.840Z,3.30
2023-07-31T19:20:48.567Z,8.90
2023-07-31T19:23:16.999Z,3.00
2023-07-31T19:25:45.591Z,2.80
2023-07-31T19:28:14.531Z,3.43
2023-07-31T19:30:42.861Z,2.93
2023-07-31T19:33:11.181Z,2.50
2023-07-31T19:35:39.404Z,3.07
2023-07-31T19:38:09.046Z,2.93
2023-07-31T19:40:37.321Z,4.10
2023-07-31T19:43:05.532Z,3.20
2023-07-31T19:45:35.523Z,2.77
2023-07-31T19:48:03.833Z,2.87
2023-07-31T19:50:32.116Z,2.60
2023-07-31T19:53:00.648Z,2.70
2023-07-31T19:55:30.679Z,3.07
2023-07-31T19:57:58.973Z,2.60
2023-07-31T20:00:27.492Z,3.03
2023-07-31T20:02:55.743Z,3.17
2023-07-31T20:05:24.022Z,3.13
2023-07-31T20:07:52.331Z,2.53
2023-07-31T20:10:20.671Z,3.53
2023-07-31T20:12:50.309Z,2.57
2023-07-31T20:15:22.122Z,2.57
2023-07-31T20:17:50.475Z,3.77
2023-07-31T20:20:18.996Z,2.60
2023-07-31T20:22:47.319Z,3.30
2023-07-31T20:25:15.543Z,2.30
2023-07-31T20:27:44.406Z,2.30
2023-07-31T20:30:14.116Z,2.50
2023-07-31T20:32:42.459Z,2.60
2023-07-31T20:35:10.980Z,3.07
2023-07-31T20:37:39.229Z,3.20
2023-07-31T20:40:08.576Z,3.13
2023-07-31T20:42:36.909Z,2.60
2023-07-31T20:45:05.279Z,2.40
2023-07-31T20:47:37.067Z,2.70
2023-07-31T20:50:05.543Z,6.93
2023-07-31T20:52:33.775Z,3.03
2023-07-31T20:55:02.061Z,2.60
2023-07-31T20:57:30.283Z,4.50
2023-07-31T20:59:58.520Z,3.77
2023-07-31T21:02:26.884Z,2.70
2023-07-31T21:04:56.740Z,2.50
2023-07-31T21:07:24.983Z,2.83
2023-07-31T21:09:53.180Z,2.30
2023-07-31T21:12:21.544Z,6.00
2023-07-31T21:14:49.751Z,2.20
2023-07-31T21:17:17.990Z,3.20
2023-07-31T21:19:46.431Z,2.57
2023-07-31T21:22:16.015Z,2.20
2023-07-31T21:24:44.219Z,2.33
2023-07-31T21:27:12.471Z,2.80
2023-07-31T21:29:40.714Z,6.40
2023-07-31T21:32:11.387Z,2.30
2023-07-31T21:34:39.735Z,2.30
2023-07-31T21:37:09.704Z,2.50
2023-07-31T21:39:39.520Z,2.90
2023-07-31T21:42:08.082Z,2.67
2023-07-31T21:44:36.336Z,3.23
2023-07-31T21:47:04.662Z,2.57
2023-07-31T21:49:32.894Z,2.60
2023-07-31T21:52:01.142Z,3.40
2023-07-31T21:54:29.351Z,2.30
2023-07-31T21:56:58.978Z,2.50
2023-07-31T21:59:27.193Z,3.03
2023-07-31T22:01:55.465Z,2.10
2023-07-31T22:04:23.752Z,4.67
2023-07-31T22:06:51.962Z,3.30
2023-07-31T22:09:20.183Z,2.10
2023-07-31T22:11:48.409Z,2.30
2023-07-31T22:14:18.016Z,2.30
2023-07-31T22:16:46.318Z,2.90
2023-07-31T22:19:14.574Z,2.27
2023-07-31T22:21:42.819Z,2.83
2023-07-31T22:24:11.041Z,3.00
2023-07-31T22:26:39.435Z,2.90
2023-07-31T22:29:07.854Z,2.87
2023-07-31T22:31:37.446Z,2.40
2023-07-31T22:34:05.642Z,2.40
2023-07-31T22:36:33.900Z,2.30
2023-07-31T22:39:02.195Z,2.10
2023-07-31T22:41:30.441Z,2.10
2023-07-31T22:43:59.571Z,2.20
2023-07-31T22:46:27.842Z,2.33
2023-07-31T22:48:58.166Z,2.10
2023-07-31T22:51:26.423Z,2.30
2023-07-31T22:53:54.675Z,2.10
2023-07-31T22:56:22.907Z,2.20
2023-07-31T22:58:51.178Z,2.20
2023-07-31T23:01:21.179Z,2.40
2023-07-31T23:03:49.690Z,2.10
2023-07-31T23:06:19.273Z,2.30
2023-07-31T23:08:47.610Z,3.60
2023-07-31T23:11:15.870Z,2.10
2023-07-31T23:13:44.112Z,2.00
2023-07-31T23:16:12.343Z,2.10
2023-07-31T23:18:41.789Z,3.53
2023-07-31T23:21:10.021Z,2.40
2023-07-31T23:23:39.629Z,2.10
2023-07-31T23:26:07.841Z,2.30
2023-07-31T23:28:36.116Z,2.10
2023-07-31T23:31:04.611Z,2.10
2023-07-31T23:33:33.097Z,2.10
2023-07-31T23:36:08.894Z,2.10
2023-07-31T23:38:37.145Z,2.00
2023-07-31T23:41:06.762Z,2.10
2023-07-31T23:43:35.041Z,2.10
2023-07-31T23:46:03.343Z,2.20
2023-07-31T23:48:31.601Z,2.50
2023-07-31T23:51:00.595Z,2.07
2023-07-31T23:53:28.856Z,2.30
2023-07-31T23:55:57.094Z,2.53
2023-07-31T23:58:27.106Z,2.10
